sensor_id;sensor_type;location;lat;lon;timestamp;P1;durP1;ratioP1;P2;durP2;ratioP2
45970;SDS011;31681;48.982;8.394;2023-08-24T00:01:06;7.95;;;5.93;;
45970;SDS011;31681;48.982;8.394;2023-08-24T00:03:31;7.03;;;5.50;;
45970;SDS011;31681;48.982;8.394;2023-08-24T00:05:58;7.28;;;5.70;;
45970;SDS011;31681;48.982;8.394;2023-08-24T00:08:23;8.65;;;5.68;;
45970;SDS011;31681;48.982;8.394;2023-08-24T00:10:48;6.65;;;5.57;;
45970;SDS011;31681;48.982;8.394;2023-08-24T00:13:14;8.38;;;5.70;;
45970;SDS011;31681;48.982;8.394;2023-08-24T00:15:39;7.68;;;5.38;;
45970;SDS011;31681;48.982;8.394;2023-08-24T00:18:05;8.13;;;5.95;;
45970;SDS011;31681;48.982;8.394;2023-08-24T00:20:30;7.22;;;5.78;;
45970;SDS011;31681;48.982;8.394;2023-08-24T00:22:57;6.45;;;5.82;;
45970;SDS011;31681;48.982;8.394;2023-08-24T00:25:23;5.95;;;5.32;;
45970;SDS011;31681;48.982;8.394;2023-08-24T00:27:48;8.13;;;5.85;;
45970;SDS011;31681;48.982;8.394;2023-08-24T00:30:13;6.75;;;5.63;;
45970;SDS011;31681;48.982;8.394;2023-08-24T00:32:39;8.13;;;5.50;;
45970;SDS011;31681;48.982;8.394;2023-08-24T00:35:05;6.45;;;5.85;;
45970;SDS011;31681;48.982;8.394;2023-08-24T00:37:31;7.55;;;5.65;;
45970;SDS011;31681;48.982;8.394;2023-08-24T00:39:57;8.50;;;5.60;;
45970;SDS011;31681;48.982;8.394;2023-08-24T00:42:22;6.75;;;5.07;;
45970;SDS011;31681;48.982;8.394;2023-08-24T00:44:48;6.53;;;5.25;;
45970;SDS011;31681;48.982;8.394;2023-08-24T00:47:13;10.57;;;5.32;;
45970;SDS011;31681;48.982;8.394;2023-08-24T00:49:39;8.30;;;5.35;;
45970;SDS011;31681;48.982;8.394;2023-08-24T00:52:04;10.77;;;5.68;;
45970;SDS011;31681;48.982;8.394;2023-08-24T00:54:30;6.70;;;5.55;;
45970;SDS011;31681;48.982;8.394;2023-08-24T00:56:55;5.70;;;5.10;;
45970;SDS011;31681;48.982;8.394;2023-08-24T00:59:21;6.75;;;5.07;;
45970;SDS011;31681;48.982;8.394;2023-08-24T01:01:47;8.25;;;5.13;;
45970;SDS011;31681;48.982;8.394;2023-08-24T01:04:13;7.63;;;4.82;;
45970;SDS011;31681;48.982;8.394;2023-08-24T01:06:38;7.35;;;5.05;;
45970;SDS011;31681;48.982;8.394;2023-08-24T01:09:04;6.00;;;5.07;;
45970;SDS011;31681;48.982;8.394;2023-08-24T01:14:08;8.80;;;5.47;;
45970;SDS011;31681;48.982;8.394;2023-08-24T01:16:39;8.05;;;5.05;;
45970;SDS011;31681;48.982;8.394;2023-08-24T01:19:07;7.32;;;5.78;;
45970;SDS011;31681;48.982;8.394;2023-08-24T01:21:35;7.28;;;5.47;;
45970;SDS011;31681;48.982;8.394;2023-08-24T01:26:30;6.95;;;5.55;;
45970;SDS011;31681;48.982;8.394;2023-08-24T01:28:56;9.98;;;6.07;;
45970;SDS011;31681;48.982;8.394;2023-08-24T01:31:24;6.70;;;5.72;;
45970;SDS011;31681;48.982;8.394;2023-08-24T01:33:49;8.65;;;6.03;;
45970;SDS011;31681;48.982;8.394;2023-08-24T01:36:15;8.48;;;6.22;;
45970;SDS011;31681;48.982;8.394;2023-08-24T01:38:44;9.15;;;6.15;;
45970;SDS011;31681;48.982;8.394;2023-08-24T01:41:12;10.00;;;6.47;;
45970;SDS011;31681;48.982;8.394;2023-08-24T01:43:39;6.15;;;5.50;;
45970;SDS011;31681;48.982;8.394;2023-08-24T01:46:04;8.30;;;6.43;;
45970;SDS011;31681;48.982;8.394;2023-08-24T01:48:30;6.47;;;5.75;;
45970;SDS011;31681;48.982;8.394;2023-08-24T01:50:57;6.57;;;5.63;;
45970;SDS011;31681;48.982;8.394;2023-08-24T01:53:22;9.45;;;6.05;;
45970;SDS011;31681;48.982;8.394;2023-08-24T01:55:47;7.13;;;6.00;;
45970;SDS011;31681;48.982;8.394;2023-08-24T01:58:13;6.90;;;5.82;;
45970;SDS011;31681;48.982;8.394;2023-08-24T02:00:38;7.95;;;5.80;;
45970;SDS011;31681;48.982;8.394;2023-08-24T02:03:03;9.27;;;5.68;;
45970;SDS011;31681;48.982;8.394;2023-08-24T02:05:29;6.25;;;5.65;;
45970;SDS011;31681;48.982;8.394;2023-08-24T02:07:54;7.20;;;5.82;;
45970;SDS011;31681;48.982;8.394;2023-08-24T02:10:19;8.23;;;5.70;;
45970;SDS011;31681;48.982;8.394;2023-08-24T02:12:45;8.50;;;5.47;;
45970;SDS011;31681;48.982;8.394;2023-08-24T02:15:10;7.07;;;5.93;;
45970;SDS011;31681;48.982;8.394;2023-08-24T02:17:36;7.22;;;6.43;;
45970;SDS011;31681;48.982;8.394;2023-08-24T02:20:02;8.15;;;5.60;;
45970;SDS011;31681;48.982;8.394;2023-08-24T02:22:28;7.38;;;5.57;;
45970;SDS011;31681;48.982;8.394;2023-08-24T02:24:53;8.05;;;5.63;;
45970;SDS011;31681;48.982;8.394;2023-08-24T02:27:19;6.35;;;5.70;;
45970;SDS011;31681;48.982;8.394;2023-08-24T02:29:44;7.55;;;5.65;;
45970;SDS011;31681;48.982;8.394;2023-08-24T02:32:09;7.18;;;6.10;;
45970;SDS011;31681;48.982;8.394;2023-08-24T02:34:35;6.43;;;5.35;;
45970;SDS011;31681;48.982;8.394;2023-08-24T02:37:00;6.47;;;5.30;;
45970;SDS011;31681;48.982;8.394;2023-08-24T02:39:25;9.00;;;5.68;;
45970;SDS011;31681;48.982;8.394;2023-08-24T02:41:51;7.35;;;5.40;;
45970;SDS011;31681;48.982;8.394;2023-08-24T02:44:16;8.77;;;6.30;;
45970;SDS011;31681;48.982;8.394;2023-08-24T02:46:44;9.23;;;5.88;;
45970;SDS011;31681;48.982;8.394;2023-08-24T02:49:09;6.78;;;5.75;;
45970;SDS011;31681;48.982;8.394;2023-08-24T02:51:34;7.82;;;5.85;;
45970;SDS011;31681;48.982;8.394;2023-08-24T02:54:00;10.30;;;5.90;;
45970;SDS011;31681;48.982;8.394;2023-08-24T02:56:25;8.70;;;5.80;;
45970;SDS011;31681;48.982;8.394;2023-08-24T02:58:50;9.52;;;5.93;;
45970;SDS011;31681;48.982;8.394;2023-08-24T03:01:15;6.75;;;5.72;;
45970;SDS011;31681;48.982;8.394;2023-08-24T03:03:41;7.43;;;5.47;;
45970;SDS011;31681;48.982;8.394;2023-08-24T03:06:07;11.15;;;5.75;;
45970;SDS011;31681;48.982;8.394;2023-08-24T03:08:33;7.43;;;5.35;;
45970;SDS011;31681;48.982;8.394;2023-08-24T03:11:00;8.15;;;5.80;;
45970;SDS011;31681;48.982;8.394;2023-08-24T03:13:26;7.13;;;5.75;;
45970;SDS011;31681;48.982;8.394;2023-08-24T03:15:53;9.63;;;5.88;;
45970;SDS011;31681;48.982;8.394;2023-08-24T03:18:19;6.38;;;5.78;;
45970;SDS011;31681;48.982;8.394;2023-08-24T03:20:45;11.40;;;6.13;;
45970;SDS011;31681;48.982;8.394;2023-08-24T03:23:13;7.60;;;5.90;;
45970;SDS011;31681;48.982;8.394;2023-08-24T03:25:39;10.20;;;5.72;;
45970;SDS011;31681;48.982;8.394;2023-08-24T03:28:07;8.38;;;6.00;;
45970;SDS011;31681;48.982;8.394;2023-08-24T03:30:33;8.43;;;5.57;;
45970;SDS011;31681;48.982;8.394;2023-08-24T03:32:59;8.43;;;5.75;;
45970;SDS011;31681;48.982;8.394;2023-08-24T03:35:24;9.30;;;6.75;;
45970;SDS011;31681;48.982;8.394;2023-08-24T03:37:50;8.43;;;5.78;;
45970;SDS011;31681;48.982;8.394;2023-08-24T03:40:16;10.65;;;6.53;;
45970;SDS011;31681;48.982;8.394;2023-08-24T03:42:41;7.57;;;5.78;;
45970;SDS011;31681;48.982;8.394;2023-08-24T03:45:07;7.85;;;6.20;;
45970;SDS011;31681;48.982;8.394;2023-08-24T03:47:32;9.50;;;6.70;;
45970;SDS011;31681;48.982;8.394;2023-08-24T03:49:57;9.23;;;6.63;;
45970;SDS011;31681;48.982;8.394;2023-08-24T03:52:24;8.25;;;6.43;;
45970;SDS011;31681;48.982;8.394;2023-08-24T03:54:49;7.72;;;6.53;;
45970;SDS011;31681;48.982;8.394;2023-08-24T03:57:16;8.85;;;6.18;;
45970;SDS011;31681;48.982;8.394;2023-08-24T03:59:41;7.88;;;6.03;;
45970;SDS011;31681;48.982;8.394;2023-08-24T04:02:07;7.60;;;5.88;;
45970;SDS011;31681;48.982;8.394;2023-08-24T04:04:33;7.22;;;6.00;;
45970;SDS011;31681;48.982;8.394;2023-08-24T04:06:58;8.55;;;6.45;;
45970;SDS011;31681;48.982;8.394;2023-08-24T04:09:24;8.60;;;6.28;;
45970;SDS011;31681;48.982;8.394;2023-08-24T04:11:49;7.35;;;6.50;;
45970;SDS011;31681;48.982;8.394;2023-08-24T04:14:14;7.18;;;6.20;;
45970;SDS011;31681;48.982;8.394;2023-08-24T04:16:40;6.63;;;5.68;;
45970;SDS011;31681;48.982;8.394;2023-08-24T04:19:07;8.23;;;6.25;;
45970;SDS011;31681;48.982;8.394;2023-08-24T04:21:32;9.27;;;5.88;;
45970;SDS011;31681;48.982;8.394;2023-08-24T04:23:58;9.50;;;6.10;;
45970;SDS011;31681;48.982;8.394;2023-08-24T04:26:24;8.85;;;6.32;;
45970;SDS011;31681;48.982;8.394;2023-08-24T04:28:49;9.48;;;6.35;;
45970;SDS011;31681;48.982;8.394;2023-08-24T04:31:15;8.45;;;5.82;;
45970;SDS011;31681;48.982;8.394;2023-08-24T04:33:40;8.15;;;6.18;;
45970;SDS011;31681;48.982;8.394;2023-08-24T04:36:06;9.23;;;5.82;;
45970;SDS011;31681;48.982;8.394;2023-08-24T04:38:31;8.10;;;5.97;;
45970;SDS011;31681;48.982;8.394;2023-08-24T04:40:56;6.20;;;5.40;;
45970;SDS011;31681;48.982;8.394;2023-08-24T04:43:22;8.27;;;6.20;;
45970;SDS011;31681;48.982;8.394;2023-08-24T04:45:48;6.78;;;6.07;;
45970;SDS011;31681;48.982;8.394;2023-08-24T04:48:15;7.50;;;5.72;;
45970;SDS011;31681;48.982;8.394;2023-08-24T04:50:43;9.10;;;6.25;;
45970;SDS011;31681;48.982;8.394;2023-08-24T04:53:09;9.18;;;5.85;;
45970;SDS011;31681;48.982;8.394;2023-08-24T04:55:34;11.25;;;6.32;;
45970;SDS011;31681;48.982;8.394;2023-08-24T04:57:59;9.95;;;6.18;;
45970;SDS011;31681;48.982;8.394;2023-08-24T05:00:25;9.93;;;6.35;;
45970;SDS011;31681;48.982;8.394;2023-08-24T05:02:50;9.30;;;5.90;;
45970;SDS011;31681;48.982;8.394;2023-08-24T05:05:16;6.30;;;5.65;;
45970;SDS011;31681;48.982;8.394;2023-08-24T05:07:42;6.75;;;5.82;;
45970;SDS011;31681;48.982;8.394;2023-08-24T05:10:07;6.63;;;5.95;;
45970;SDS011;31681;48.982;8.394;2023-08-24T05:12:33;6.18;;;5.57;;
45970;SDS011;31681;48.982;8.394;2023-08-24T05:15:01;8.10;;;5.45;;
45970;SDS011;31681;48.982;8.394;2023-08-24T05:17:27;8.65;;;6.35;;
45970;SDS011;31681;48.982;8.394;2023-08-24T05:19:53;13.45;;;6.13;;
45970;SDS011;31681;48.982;8.394;2023-08-24T05:22:20;8.27;;;5.60;;
45970;SDS011;31681;48.982;8.394;2023-08-24T05:24:46;8.52;;;5.57;;
45970;SDS011;31681;48.982;8.394;2023-08-24T05:27:11;9.02;;;6.10;;
45970;SDS011;31681;48.982;8.394;2023-08-24T05:29:36;7.22;;;6.30;;
45970;SDS011;31681;48.982;8.394;2023-08-24T05:32:02;10.90;;;6.20;;
45970;SDS011;31681;48.982;8.394;2023-08-24T05:34:28;11.98;;;6.07;;
45970;SDS011;31681;48.982;8.394;2023-08-24T05:36:53;8.75;;;6.32;;
45970;SDS011;31681;48.982;8.394;2023-08-24T05:39:18;8.52;;;5.60;;
45970;SDS011;31681;48.982;8.394;2023-08-24T05:41:44;6.38;;;5.78;;
45970;SDS011;31681;48.982;8.394;2023-08-24T05:44:09;6.45;;;5.85;;
45970;SDS011;31681;48.982;8.394;2023-08-24T05:46:34;7.40;;;5.70;;
45970;SDS011;31681;48.982;8.394;2023-08-24T05:49:00;6.13;;;5.65;;
45970;SDS011;31681;48.982;8.394;2023-08-24T05:51:25;9.15;;;6.28;;
45970;SDS011;31681;48.982;8.394;2023-08-24T05:53:51;7.07;;;6.38;;
45970;SDS011;31681;48.982;8.394;2023-08-24T05:56:23;8.60;;;6.30;;
45970;SDS011;31681;48.982;8.394;2023-08-24T05:58:49;7.10;;;5.32;;
45970;SDS011;31681;48.982;8.394;2023-08-24T06:01:14;8.15;;;5.30;;
45970;SDS011;31681;48.982;8.394;2023-08-24T06:03:40;8.18;;;5.50;;
45970;SDS011;31681;48.982;8.394;2023-08-24T06:06:05;7.95;;;5.47;;
45970;SDS011;31681;48.982;8.394;2023-08-24T06:08:31;7.30;;;5.72;;
45970;SDS011;31681;48.982;8.394;2023-08-24T06:10:56;8.85;;;6.35;;
45970;SDS011;31681;48.982;8.394;2023-08-24T06:13:22;6.40;;;5.75;;
45970;SDS011;31681;48.982;8.394;2023-08-24T06:15:47;6.40;;;5.40;;
45970;SDS011;31681;48.982;8.394;2023-08-24T06:18:12;10.63;;;5.32;;
45970;SDS011;31681;48.982;8.394;2023-08-24T06:20:38;10.20;;;6.13;;
45970;SDS011;31681;48.982;8.394;2023-08-24T06:23:04;9.73;;;6.40;;
45970;SDS011;31681;48.982;8.394;2023-08-24T06:25:30;6.50;;;5.70;;
45970;SDS011;31681;48.982;8.394;2023-08-24T06:27:57;8.27;;;5.75;;
45970;SDS011;31681;48.982;8.394;2023-08-24T06:30:24;10.07;;;5.85;;
45970;SDS011;31681;48.982;8.394;2023-08-24T06:32:49;9.18;;;5.13;;
45970;SDS011;31681;48.982;8.394;2023-08-24T06:35:14;5.57;;;4.63;;
45970;SDS011;31681;48.982;8.394;2023-08-24T06:37:40;12.30;;;5.07;;
45970;SDS011;31681;48.982;8.394;2023-08-24T06:40:05;6.25;;;4.65;;
45970;SDS011;31681;48.982;8.394;2023-08-24T06:42:31;8.25;;;5.32;;
45970;SDS011;31681;48.982;8.394;2023-08-24T06:44:56;8.80;;;4.53;;
45970;SDS011;31681;48.982;8.394;2023-08-24T06:47:22;5.78;;;4.55;;
45970;SDS011;31681;48.982;8.394;2023-08-24T06:49:47;6.75;;;3.72;;
45970;SDS011;31681;48.982;8.394;2023-08-24T06:52:12;5.22;;;4.28;;
45970;SDS011;31681;48.982;8.394;2023-08-24T06:54:38;9.43;;;4.43;;
45970;SDS011;31681;48.982;8.394;2023-08-24T06:57:03;7.18;;;3.88;;
45970;SDS011;31681;48.982;8.394;2023-08-24T06:59:29;5.45;;;3.72;;
45970;SDS011;31681;48.982;8.394;2023-08-24T07:01:54;7.35;;;4.32;;
45970;SDS011;31681;48.982;8.394;2023-08-24T07:04:19;5.05;;;4.20;;
45970;SDS011;31681;48.982;8.394;2023-08-24T07:06:45;4.95;;;3.95;;
45970;SDS011;31681;48.982;8.394;2023-08-24T07:09:11;4.47;;;3.55;;
45970;SDS011;31681;48.982;8.394;2023-08-24T07:11:36;11.23;;;4.60;;
45970;SDS011;31681;48.982;8.394;2023-08-24T07:14:02;5.40;;;4.15;;
45970;SDS011;31681;48.982;8.394;2023-08-24T07:16:27;4.70;;;4.05;;
45970;SDS011;31681;48.982;8.394;2023-08-24T07:18:52;5.43;;;3.92;;
45970;SDS011;31681;48.982;8.394;2023-08-24T07:21:18;3.97;;;3.58;;
45970;SDS011;31681;48.982;8.394;2023-08-24T07:23:43;5.88;;;3.90;;
45970;SDS011;31681;48.982;8.394;2023-08-24T07:26:09;5.50;;;4.28;;
45970;SDS011;31681;48.982;8.394;2023-08-24T07:28:34;5.05;;;3.67;;
45970;SDS011;31681;48.982;8.394;2023-08-24T07:31:06;4.25;;;3.45;;
45970;SDS011;31681;48.982;8.394;2023-08-24T07:33:32;6.07;;;3.35;;
45970;SDS011;31681;48.982;8.394;2023-08-24T07:35:57;7.03;;;3.85;;
45970;SDS011;31681;48.982;8.394;2023-08-24T07:38:22;5.40;;;3.50;;
45970;SDS011;31681;48.982;8.394;2023-08-24T07:40:48;6.47;;;3.53;;
45970;SDS011;31681;48.982;8.394;2023-08-24T07:43:13;5.82;;;3.58;;
45970;SDS011;31681;48.982;8.394;2023-08-24T07:45:38;5.55;;;3.42;;
45970;SDS011;31681;48.982;8.394;2023-08-24T07:48:05;10.18;;;3.85;;
45970;SDS011;31681;48.982;8.394;2023-08-24T07:50:31;4.50;;;3.10;;
45970;SDS011;31681;48.982;8.394;2023-08-24T07:52:57;5.32;;;3.20;;
45970;SDS011;31681;48.982;8.394;2023-08-24T07:55:22;6.40;;;3.00;;
45970;SDS011;31681;48.982;8.394;2023-08-24T07:57:47;4.85;;;3.00;;
45970;SDS011;31681;48.982;8.394;2023-08-24T08:00:14;4.15;;;3.17;;
45970;SDS011;31681;48.982;8.394;2023-08-24T08:02:39;4.88;;;3.40;;
45970;SDS011;31681;48.982;8.394;2023-08-24T08:05:05;12.00;;;3.90;;
45970;SDS011;31681;48.982;8.394;2023-08-24T08:07:32;4.95;;;3.20;;
45970;SDS011;31681;48.982;8.394;2023-08-24T08:09:58;4.85;;;3.50;;
45970;SDS011;31681;48.982;8.394;2023-08-24T08:12:23;6.88;;;3.40;;
45970;SDS011;31681;48.982;8.394;2023-08-24T08:14:48;6.15;;;3.72;;
45970;SDS011;31681;48.982;8.394;2023-08-24T08:17:14;4.15;;;3.20;;
45970;SDS011;31681;48.982;8.394;2023-08-24T08:19:39;4.93;;;3.17;;
45970;SDS011;31681;48.982;8.394;2023-08-24T08:22:04;5.32;;;3.63;;
45970;SDS011;31681;48.982;8.394;2023-08-24T08:24:30;5.50;;;3.53;;
45970;SDS011;31681;48.982;8.394;2023-08-24T08:26:55;6.40;;;3.45;;
45970;SDS011;31681;48.982;8.394;2023-08-24T08:29:21;6.85;;;3.60;;
45970;SDS011;31681;48.982;8.394;2023-08-24T08:31:46;7.53;;;3.70;;
45970;SDS011;31681;48.982;8.394;2023-08-24T08:34:11;4.93;;;3.70;;
45970;SDS011;31681;48.982;8.394;2023-08-24T08:36:37;4.13;;;3.72;;
45970;SDS011;31681;48.982;8.394;2023-08-24T08:39:02;5.53;;;3.53;;
45970;SDS011;31681;48.982;8.394;2023-08-24T08:41:30;8.50;;;3.72;;
45970;SDS011;31681;48.982;8.394;2023-08-24T08:43:56;4.10;;;3.47;;
45970;SDS011;31681;48.982;8.394;2023-08-24T08:46:21;4.80;;;3.63;;
45970;SDS011;31681;48.982;8.394;2023-08-24T08:48:47;5.00;;;3.53;;
45970;SDS011;31681;48.982;8.394;2023-08-24T08:51:14;5.05;;;3.55;;
45970;SDS011;31681;48.982;8.394;2023-08-24T08:53:41;5.38;;;3.70;;
45970;SDS011;31681;48.982;8.394;2023-08-24T08:56:06;6.53;;;3.60;;
45970;SDS011;31681;48.982;8.394;2023-08-24T08:58:32;6.25;;;3.50;;
45970;SDS011;31681;48.982;8.394;2023-08-24T09:00:59;7.35;;;3.75;;
45970;SDS011;31681;48.982;8.394;2023-08-24T09:03:28;4.40;;;3.50;;
45970;SDS011;31681;48.982;8.394;2023-08-24T09:05:54;7.93;;;3.60;;
45970;SDS011;31681;48.982;8.394;2023-08-24T09:08:19;6.55;;;3.55;;
45970;SDS011;31681;48.982;8.394;2023-08-24T09:10:45;4.32;;;3.42;;
45970;SDS011;31681;48.982;8.394;2023-08-24T09:13:11;6.25;;;4.32;;
45970;SDS011;31681;48.982;8.394;2023-08-24T09:15:37;6.30;;;3.63;;
45970;SDS011;31681;48.982;8.394;2023-08-24T09:18:02;6.22;;;4.00;;
45970;SDS011;31681;48.982;8.394;2023-08-24T09:20:28;5.32;;;3.78;;
45970;SDS011;31681;48.982;8.394;2023-08-24T09:22:57;4.68;;;3.60;;
45970;SDS011;31681;48.982;8.394;2023-08-24T09:25:25;5.68;;;4.03;;
45970;SDS011;31681;48.982;8.394;2023-08-24T09:28:01;7.53;;;4.50;;
45970;SDS011;31681;48.982;8.394;2023-08-24T09:30:29;7.50;;;4.20;;
45970;SDS011;31681;48.982;8.394;2023-08-24T09:32:55;6.55;;;4.05;;
45970;SDS011;31681;48.982;8.394;2023-08-24T09:35:20;7.03;;;4.18;;
45970;SDS011;31681;48.982;8.394;2023-08-24T09:37:46;5.93;;;4.25;;
45970;SDS011;31681;48.982;8.394;2023-08-24T09:40:14;4.50;;;4.00;;
45970;SDS011;31681;48.982;8.394;2023-08-24T09:42:40;5.70;;;4.20;;
45970;SDS011;31681;48.982;8.394;2023-08-24T09:45:07;6.13;;;4.03;;
45970;SDS011;31681;48.982;8.394;2023-08-24T09:47:35;7.30;;;4.50;;
45970;SDS011;31681;48.982;8.394;2023-08-24T09:50:00;6.13;;;4.30;;
45970;SDS011;31681;48.982;8.394;2023-08-24T09:52:26;6.80;;;5.00;;
45970;SDS011;31681;48.982;8.394;2023-08-24T09:54:55;11.18;;;4.80;;
45970;SDS011;31681;48.982;8.394;2023-08-24T09:57:21;6.03;;;4.68;;
45970;SDS011;31681;48.982;8.394;2023-08-24T09:59:47;5.50;;;4.55;;
45970;SDS011;31681;48.982;8.394;2023-08-24T10:02:15;6.10;;;4.82;;
45970;SDS011;31681;48.982;8.394;2023-08-24T10:04:42;7.10;;;4.75;;
45970;SDS011;31681;48.982;8.394;2023-08-24T10:07:10;11.95;;;4.90;;
45970;SDS011;31681;48.982;8.394;2023-08-24T10:12:44;8.07;;;4.97;;
45970;SDS011;31681;48.982;8.394;2023-08-24T10:15:11;12.65;;;5.40;;
45970;SDS011;31681;48.982;8.394;2023-08-24T10:17:38;6.97;;;4.75;;
45970;SDS011;31681;48.982;8.394;2023-08-24T10:20:05;6.97;;;4.70;;
45970;SDS011;31681;48.982;8.394;2023-08-24T10:22:31;8.60;;;5.13;;
45970;SDS011;31681;48.982;8.394;2023-08-24T10:24:59;6.80;;;5.05;;
45970;SDS011;31681;48.982;8.394;2023-08-24T10:27:24;15.93;;;5.43;;
45970;SDS011;31681;48.982;8.394;2023-08-24T10:29:51;7.30;;;4.85;;
45970;SDS011;31681;48.982;8.394;2023-08-24T10:32:17;9.15;;;5.18;;
45970;SDS011;31681;48.982;8.394;2023-08-24T10:34:42;7.68;;;4.72;;
45970;SDS011;31681;48.982;8.394;2023-08-24T10:37:08;7.22;;;4.82;;
45970;SDS011;31681;48.982;8.394;2023-08-24T10:39:38;11.13;;;5.13;;
45970;SDS011;31681;48.982;8.394;2023-08-24T10:42:10;7.70;;;4.28;;
45970;SDS011;31681;48.982;8.394;2023-08-24T10:44:36;8.95;;;4.25;;
45970;SDS011;31681;48.982;8.394;2023-08-24T10:47:12;8.45;;;4.65;;
45970;SDS011;31681;48.982;8.394;2023-08-24T10:49:39;7.13;;;4.65;;
45970;SDS011;31681;48.982;8.394;2023-08-24T10:52:23;6.32;;;4.88;;
45970;SDS011;31681;48.982;8.394;2023-08-24T10:54:49;11.75;;;4.90;;
45970;SDS011;31681;48.982;8.394;2023-08-24T10:57:24;5.30;;;4.40;;
45970;SDS011;31681;48.982;8.394;2023-08-24T11:00:03;8.48;;;4.00;;
45970;SDS011;31681;48.982;8.394;2023-08-24T11:02:31;6.53;;;4.60;;
45970;SDS011;31681;48.982;8.394;2023-08-24T11:05:10;8.10;;;4.93;;
45970;SDS011;31681;48.982;8.394;2023-08-24T11:07:49;6.15;;;4.97;;
45970;SDS011;31681;48.982;8.394;2023-08-24T11:10:15;6.18;;;4.68;;
45970;SDS011;31681;48.982;8.394;2023-08-24T11:18:19;9.65;;;5.40;;
45970;SDS011;31681;48.982;8.394;2023-08-24T11:20:46;7.85;;;4.95;;
45970;SDS011;31681;48.982;8.394;2023-08-24T11:23:12;7.20;;;5.20;;
45970;SDS011;31681;48.982;8.394;2023-08-24T11:25:37;7.30;;;5.15;;
45970;SDS011;31681;48.982;8.394;2023-08-24T11:28:03;7.45;;;5.15;;
45970;SDS011;31681;48.982;8.394;2023-08-24T11:30:29;6.22;;;5.03;;
45970;SDS011;31681;48.982;8.394;2023-08-24T11:32:55;8.77;;;5.15;;
45970;SDS011;31681;48.982;8.394;2023-08-24T11:35:20;6.82;;;5.05;;
45970;SDS011;31681;48.982;8.394;2023-08-24T11:37:55;5.72;;;5.13;;
45970;SDS011;31681;48.982;8.394;2023-08-24T11:40:20;6.18;;;4.93;;
45970;SDS011;31681;48.982;8.394;2023-08-24T11:42:46;9.35;;;5.20;;
45970;SDS011;31681;48.982;8.394;2023-08-24T11:45:12;8.20;;;5.20;;
45970;SDS011;31681;48.982;8.394;2023-08-24T11:47:38;7.90;;;5.07;;
45970;SDS011;31681;48.982;8.394;2023-08-24T11:50:03;5.93;;;5.22;;
45970;SDS011;31681;48.982;8.394;2023-08-24T11:52:29;9.20;;;5.30;;
45970;SDS011;31681;48.982;8.394;2023-08-24T11:54:54;6.80;;;5.43;;
45970;SDS011;31681;48.982;8.394;2023-08-24T11:57:23;7.45;;;5.15;;
45970;SDS011;31681;48.982;8.394;2023-08-24T11:59:51;8.57;;;5.35;;
45970;SDS011;31681;48.982;8.394;2023-08-24T12:02:16;8.93;;;5.68;;
45970;SDS011;31681;48.982;8.394;2023-08-24T12:04:43;5.70;;;5.10;;
45970;SDS011;31681;48.982;8.394;2023-08-24T12:07:11;6.97;;;5.72;;
45970;SDS011;31681;48.982;8.394;2023-08-24T12:09:38;6.07;;;5.57;;
45970;SDS011;31681;48.982;8.394;2023-08-24T12:12:04;7.65;;;5.25;;
45970;SDS011;31681;48.982;8.394;2023-08-24T12:14:39;8.68;;;5.43;;
45970;SDS011;31681;48.982;8.394;2023-08-24T12:17:08;9.82;;;5.53;;
45970;SDS011;31681;48.982;8.394;2023-08-24T12:19:34;9.02;;;5.80;;
45970;SDS011;31681;48.982;8.394;2023-08-24T12:21:59;6.63;;;5.40;;
45970;SDS011;31681;48.982;8.394;2023-08-24T12:24:24;10.38;;;5.18;;
45970;SDS011;31681;48.982;8.394;2023-08-24T12:26:56;5.25;;;4.72;;
45970;SDS011;31681;48.982;8.394;2023-08-24T12:29:23;8.20;;;5.47;;
45970;SDS011;31681;48.982;8.394;2023-08-24T12:31:48;9.73;;;5.30;;
45970;SDS011;31681;48.982;8.394;2023-08-24T12:34:14;11.32;;;5.53;;
45970;SDS011;31681;48.982;8.394;2023-08-24T12:36:41;5.78;;;5.28;;
45970;SDS011;31681;48.982;8.394;2023-08-24T12:39:10;10.63;;;5.85;;
45970;SDS011;31681;48.982;8.394;2023-08-24T12:41:36;8.57;;;6.25;;
45970;SDS011;31681;48.982;8.394;2023-08-24T12:44:01;9.25;;;5.53;;
45970;SDS011;31681;48.982;8.394;2023-08-24T12:46:30;10.88;;;5.63;;
45970;SDS011;31681;48.982;8.394;2023-08-24T12:48:56;7.43;;;5.32;;
45970;SDS011;31681;48.982;8.394;2023-08-24T12:51:21;7.60;;;5.85;;
45970;SDS011;31681;48.982;8.394;2023-08-24T12:53:47;7.63;;;6.07;;
45970;SDS011;31681;48.982;8.394;2023-08-24T12:56:12;6.82;;;5.82;;
45970;SDS011;31681;48.982;8.394;2023-08-24T12:58:37;7.00;;;5.72;;
45970;SDS011;31681;48.982;8.394;2023-08-24T13:01:03;8.50;;;5.68;;
45970;SDS011;31681;48.982;8.394;2023-08-24T13:03:28;8.82;;;6.10;;
45970;SDS011;31681;48.982;8.394;2023-08-24T13:05:53;9.10;;;5.65;;
45970;SDS011;31681;48.982;8.394;2023-08-24T13:08:19;5.97;;;5.20;;
45970;SDS011;31681;48.982;8.394;2023-08-24T13:10:44;7.65;;;5.40;;
45970;SDS011;31681;48.982;8.394;2023-08-24T13:13:09;6.90;;;5.43;;
45970;SDS011;31681;48.982;8.394;2023-08-24T13:15:35;10.32;;;6.13;;
45970;SDS011;31681;48.982;8.394;2023-08-24T13:18:00;12.38;;;6.07;;
45970;SDS011;31681;48.982;8.394;2023-08-24T13:20:26;11.23;;;5.57;;
45970;SDS011;31681;48.982;8.394;2023-08-24T13:22:52;7.55;;;5.30;;
45970;SDS011;31681;48.982;8.394;2023-08-24T13:25:17;8.35;;;5.57;;
45970;SDS011;31681;48.982;8.394;2023-08-24T13:27:43;11.55;;;5.55;;
45970;SDS011;31681;48.982;8.394;2023-08-24T13:30:08;6.35;;;5.72;;
45970;SDS011;31681;48.982;8.394;2023-08-24T13:32:34;10.77;;;5.65;;
45970;SDS011;31681;48.982;8.394;2023-08-24T13:35:00;10.68;;;5.80;;
45970;SDS011;31681;48.982;8.394;2023-08-24T13:37:25;9.98;;;6.18;;
45970;SDS011;31681;48.982;8.394;2023-08-24T13:39:51;8.65;;;5.78;;
45970;SDS011;31681;48.982;8.394;2023-08-24T13:42:16;11.23;;;6.10;;
45970;SDS011;31681;48.982;8.394;2023-08-24T13:44:42;8.48;;;5.47;;
45970;SDS011;31681;48.982;8.394;2023-08-24T13:47:08;10.10;;;5.93;;
45970;SDS011;31681;48.982;8.394;2023-08-24T13:49:33;13.23;;;6.65;;
45970;SDS011;31681;48.982;8.394;2023-08-24T13:51:58;8.15;;;5.68;;
45970;SDS011;31681;48.982;8.394;2023-08-24T13:54:23;10.68;;;5.55;;
45970;SDS011;31681;48.982;8.394;2023-08-24T13:56:51;6.90;;;6.00;;
45970;SDS011;31681;48.982;8.394;2023-08-24T13:59:19;10.73;;;6.15;;
45970;SDS011;31681;48.982;8.394;2023-08-24T14:01:44;9.68;;;5.85;;
45970;SDS011;31681;48.982;8.394;2023-08-24T14:04:10;8.55;;;6.35;;
45970;SDS011;31681;48.982;8.394;2023-08-24T14:06:35;8.95;;;6.05;;
45970;SDS011;31681;48.982;8.394;2023-08-24T14:09:02;12.25;;;6.32;;
45970;SDS011;31681;48.982;8.394;2023-08-24T14:11:28;10.98;;;6.30;;
45970;SDS011;31681;48.982;8.394;2023-08-24T14:13:53;10.10;;;5.85;;
45970;SDS011;31681;48.982;8.394;2023-08-24T14:16:18;9.30;;;5.43;;
45970;SDS011;31681;48.982;8.394;2023-08-24T14:18:47;13.68;;;6.55;;
45970;SDS011;31681;48.982;8.394;2023-08-24T14:21:13;12.55;;;8.82;;
45970;SDS011;31681;48.982;8.394;2023-08-24T14:23:38;15.10;;;8.93;;
45970;SDS011;31681;48.982;8.394;2023-08-24T14:26:04;10.27;;;8.68;;
45970;SDS011;31681;48.982;8.394;2023-08-24T14:31:15;13.80;;;9.07;;
45970;SDS011;31681;48.982;8.394;2023-08-24T14:33:40;13.05;;;9.48;;
45970;SDS011;31681;48.982;8.394;2023-08-24T14:36:05;12.88;;;9.65;;
45970;SDS011;31681;48.982;8.394;2023-08-24T14:38:31;17.33;;;10.02;;
45970;SDS011;31681;48.982;8.394;2023-08-24T14:40:56;12.05;;;8.88;;
45970;SDS011;31681;48.982;8.394;2023-08-24T14:43:21;11.40;;;9.30;;
45970;SDS011;31681;48.982;8.394;2023-08-24T14:45:47;12.68;;;9.93;;
45970;SDS011;31681;48.982;8.394;2023-08-24T14:48:13;12.07;;;9.80;;
45970;SDS011;31681;48.982;8.394;2023-08-24T14:50:38;14.93;;;12.27;;
45970;SDS011;31681;48.982;8.394;2023-08-24T14:53:04;12.75;;;11.00;;
45970;SDS011;31681;48.982;8.394;2023-08-24T14:55:29;12.18;;;10.02;;